Time;durP1;ratioP1;P1;durP2;ratioP2;P2;SDS_P1;SDS_P2;PMS_P1;PMS_P2;Temp;Humidity;BMP_temperature;BMP_pressure;BME280_temperature;BME280_humidity;BME280_pressure;Samples;Min_cycle;Max_cycle;Signal;HPM_P1;HPM_P2
2022/07/23 00:02:16;;;;;;;7.18;2.55;;;16.50;99.90;;;;;;5008832;28;20652;-75
2022/07/23 00:04:42;;;;;;;9.30;2.80;;;16.40;99.90;;;;;;5007002;28;20034;-74
2022/07/23 00:07:08;;;;;;;5.15;2.42;;;16.40;99.90;;;;;;4994846;28;20027;-75
2022/07/23 00:09:33;;;;;;;7.95;2.53;;;16.30;99.90;;;;;;5008173;28;20026;-75
2022/07/23 00:11:59;;;;;;;5.55;2.40;;;16.30;99.90;;;;;;4994312;28;20030;-74
2022/07/23 00:14:24;;;;;;;6.25;2.70;;;16.30;99.90;;;;;;5012977;28;20395;-75
2022/07/23 00:16:50;;;;;;;5.68;2.50;;;16.30;99.90;;;;;;5004515;28;20073;-74
2022/07/23 00:19:15;;;;;;;4.47;2.45;;;16.30;99.90;;;;;;5002442;28;20050;-75
2022/07/23 00:21:41;;;;;;;7.05;2.72;;;16.30;99.90;;;;;;5007382;28;20018;-76
2022/07/23 00:24:07;;;;;;;5.15;2.80;;;16.30;99.90;;;;;;5002074;28;20414;-75
2022/07/23 00:26:32;;;;;;;6.07;2.67;;;16.30;99.90;;;;;;5006059;28;20101;-74
2022/07/23 00:28:58;;;;;;;5.35;3.08;;;16.30;99.90;;;;;;4993601;28;20037;-75
2022/07/23 00:31:23;;;;;;;7.90;2.83;;;16.30;99.90;;;;;;5011459;28;20044;-76
2022/07/23 00:33:49;;;;;;;8.45;2.70;;;16.30;99.90;;;;;;5005093;28;20038;-75
2022/07/23 00:36:16;;;;;;;6.75;2.80;;;16.30;99.90;;;;;;5005114;28;20062;-75
2022/07/23 00:38:41;;;;;;;7.68;2.78;;;16.30;99.90;;;;;;5008682;28;20066;-75
2022/07/23 00:41:07;;;;;;;6.13;2.80;;;16.30;99.90;;;;;;5011405;28;20542;-74
2022/07/23 00:43:32;;;;;;;5.03;3.13;;;16.30;99.90;;;;;;5006977;28;20327;-75
2022/07/23 00:45:58;;;;;;;6.95;2.80;;;16.30;99.90;;;;;;4999455;28;20109;-75
2022/07/23 00:48:24;;;;;;;4.90;3.00;;;16.30;99.90;;;;;;5001351;28;20399;-76
2022/07/23 00:50:49;;;;;;;5.20;2.90;;;16.30;99.90;;;;;;5010610;28;20072;-75
2022/07/23 00:53:15;;;;;;;4.95;2.90;;;16.30;99.90;;;;;;5010626;28;20113;-75
2022/07/23 00:55:41;;;;;;;5.55;3.28;;;16.30;99.90;;;;;;4996974;28;20036;-75
2022/07/23 00:58:08;;;;;;;5.50;2.90;;;16.30;99.90;;;;;;5008144;28;20394;-75
2022/07/23 01:00:34;;;;;;;7.55;3.30;;;16.30;99.90;;;;;;5012215;28;20050;-74
2022/07/23 01:02:59;;;;;;;5.40;3.00;;;16.30;99.90;;;;;;5004606;28;20321;-76
2022/07/23 01:05:25;;;;;;;6.40;3.33;;;16.30;99.90;;;;;;5010193;28;20109;-75
2022/07/23 01:07:52;;;;;;;8.48;3.50;;;16.30;99.90;;;;;;5002970;28;20033;-75
2022/07/23 01:10:33;;;;;;;7.90;3.33;;;16.30;99.90;;;;;;5010744;28;20042;-75
2022/07/23 01:13:01;;;;;;;7.50;3.72;;;16.30;99.90;;;;;;5011202;28;20052;-75
2022/07/23 01:15:28;;;;;;;9.98;3.70;;;16.30;99.90;;;;;;5001518;28;20114;-76
2022/07/23 01:17:53;;;;;;;11.27;3.55;;;16.30;99.90;;;;;;5004029;28;20030;-75
2022/07/23 01:20:20;;;;;;;9.68;3.15;;;16.30;99.90;;;;;;4998846;28;20029;-75
2022/07/23 01:22:46;;;;;;;7.60;3.63;;;16.30;99.90;;;;;;5009888;28;20031;-75
2022/07/23 01:25:12;;;;;;;5.80;3.25;;;16.30;99.90;;;;;;5012037;28;20022;-75
2022/07/23 01:27:38;;;;;;;7.78;3.20;;;16.20;99.90;;;;;;5008350;28;20054;-75
2022/07/23 01:30:04;;;;;;;5.75;3.28;;;16.10;99.90;;;;;;5008640;28;20066;-75
2022/07/23 01:32:30;;;;;;;6.95;3.70;;;16.10;99.90;;;;;;4998554;28;20070;-76
2022/07/23 01:34:56;;;;;;;6.70;3.20;;;16.10;99.90;;;;;;5009933;28;20111;-75
2022/07/23 01:37:22;;;;;;;7.80;3.58;;;16.00;99.90;;;;;;5001897;28;20022;-75
2022/07/23 01:39:47;;;;;;;9.35;3.38;;;16.00;99.90;;;;;;4998331;28;20068;-75
2022/07/23 01:42:13;;;;;;;5.40;3.10;;;16.00;99.90;;;;;;5016025;28;20033;-75
2022/07/23 01:44:38;;;;;;;9.52;3.30;;;16.00;99.90;;;;;;5016343;28;20026;-75
2022/07/23 01:47:04;;;;;;;9.98;3.45;;;16.00;99.90;;;;;;5011577;28;20405;-75
2022/07/23 01:49:29;;;;;;;4.40;3.33;;;16.00;99.90;;;;;;5013066;28;20026;-75
2022/07/23 01:52:01;;;;;;;6.63;3.17;;;16.00;99.90;;;;;;5001604;28;20029;-75
2022/07/23 01:54:28;;;;;;;6.25;3.22;;;16.00;99.90;;;;;;5011249;28;20084;-76
2022/07/23 01:56:54;;;;;;;5.03;3.35;;;16.00;99.90;;;;;;5013963;28;20022;-75
2022/07/23 01:59:20;;;;;;;6.40;3.33;;;15.90;99.90;;;;;;5009199;28;20478;-75
2022/07/23 02:01:45;;;;;;;7.13;3.50;;;15.90;99.90;;;;;;5009031;28;20029;-75
2022/07/23 02:04:11;;;;;;;5.93;3.05;;;15.90;99.90;;;;;;5009145;28;20030;-75
2022/07/23 02:06:37;;;;;;;7.03;3.20;;;15.80;99.90;;;;;;5011162;28;20033;-75
2022/07/23 02:09:02;;;;;;;5.47;3.25;;;15.80;99.90;;;;;;5008818;28;20019;-74
2022/07/23 02:11:28;;;;;;;8.40;3.92;;;15.80;99.90;;;;;;4999391;28;20072;-75
2022/07/23 02:13:54;;;;;;;8.02;3.42;;;15.80;99.90;;;;;;5002174;28;20022;-75
2022/07/23 02:16:19;;;;;;;5.13;3.20;;;15.80;99.90;;;;;;5006428;28;20030;-75
2022/07/23 02:18:46;;;;;;;6.45;3.67;;;15.80;99.90;;;;;;4997923;28;20475;-76
2022/07/23 02:21:12;;;;;;;5.72;3.70;;;15.70;99.90;;;;;;4994702;28;20077;-74
2022/07/23 02:23:37;;;;;;;4.55;3.30;;;15.70;99.90;;;;;;5002258;28;20038;-75
2022/07/23 02:26:03;;;;;;;5.22;3.35;;;15.70;99.90;;;;;;5012227;28;20058;-75
2022/07/23 02:28:28;;;;;;;6.93;3.50;;;15.60;99.90;;;;;;5013406;28;20081;-75
2022/07/23 02:30:54;;;;;;;6.13;3.75;;;15.60;99.90;;;;;;5009678;28;20034;-74
2022/07/23 02:33:20;;;;;;;10.55;3.90;;;15.60;99.90;;;;;;5011852;28;20117;-75
2022/07/23 02:35:45;;;;;;;10.18;3.88;;;15.60;99.90;;;;;;5002392;28;20045;-75
2022/07/23 02:38:11;;;;;;;5.63;3.70;;;15.50;99.90;;;;;;5013525;28;20014;-75
2022/07/23 02:40:36;;;;;;;9.02;3.92;;;15.50;99.90;;;;;;5015362;28;20529;-75
2022/07/23 02:43:02;;;;;;;8.57;4.30;;;15.50;99.90;;;;;;5008940;28;20474;-75
2022/07/23 02:45:27;;;;;;;7.47;4.38;;;15.50;99.90;;;;;;5013893;28;20457;-75
2022/07/23 02:47:53;;;;;;;8.00;3.80;;;15.50;99.90;;;;;;5013858;28;20050;-75
2022/07/23 02:50:19;;;;;;;6.75;4.00;;;15.50;99.90;;;;;;5014622;28;20069;-75
2022/07/23 02:52:44;;;;;;;9.90;4.38;;;15.50;99.90;;;;;;5010312;28;20051;-78
2022/07/23 02:55:10;;;;;;;7.97;4.10;;;15.50;99.90;;;;;;5011886;28;20501;-75
2022/07/23 02:57:36;;;;;;;6.07;3.80;;;15.50;99.90;;;;;;5013203;28;20490;-75
2022/07/23 03:00:04;;;;;;;7.53;3.85;;;15.50;99.90;;;;;;5000622;28;20018;-76
2022/07/23 03:02:30;;;;;;;7.88;4.00;;;15.50;99.90;;;;;;5012166;28;20513;-75
2022/07/23 03:04:55;;;;;;;8.23;4.18;;;15.50;99.90;;;;;;5000117;28;20125;-75
2022/07/23 03:07:21;;;;;;;8.25;4.18;;;15.50;99.90;;;;;;5005766;28;20042;-74
2022/07/23 03:09:46;;;;;;;7.25;4.22;;;15.50;99.90;;;;;;4998005;28;20034;-75
2022/07/23 03:12:12;;;;;;;9.18;4.35;;;15.40;99.90;;;;;;5005406;28;20017;-75
2022/07/23 03:14:38;;;;;;;8.30;4.30;;;15.40;99.90;;;;;;5018908;28;20509;-76
2022/07/23 03:17:04;;;;;;;8.38;4.57;;;15.40;99.90;;;;;;5005305;28;20021;-75
2022/07/23 03:19:29;;;;;;;8.63;4.20;;;15.40;99.90;;;;;;5006730;28;20429;-76
2022/07/23 03:21:55;;;;;;;8.40;4.35;;;15.30;99.90;;;;;;5011040;28;20060;-75
2022/07/23 03:24:23;;;;;;;5.72;4.20;;;15.30;99.90;;;;;;5004464;28;20043;-75
2022/07/23 03:26:49;;;;;;;6.22;4.15;;;15.30;99.90;;;;;;4999335;28;20043;-75
2022/07/23 03:29:15;;;;;;;8.13;4.55;;;15.30;99.90;;;;;;5011075;28;20073;-76
2022/07/23 03:31:40;;;;;;;6.90;4.38;;;15.30;99.90;;;;;;5011677;28;20046;-76
2022/07/23 03:34:06;;;;;;;7.65;4.20;;;15.20;99.90;;;;;;5015180;28;20026;-75
2022/07/23 03:36:31;;;;;;;9.25;4.30;;;15.20;99.90;;;;;;5020542;28;20113;-74
2022/07/23 03:38:57;;;;;;;5.82;4.05;;;15.20;99.90;;;;;;5020443;28;20022;-75
2022/07/23 03:41:22;;;;;;;9.57;4.57;;;15.20;99.90;;;;;;5006058;28;20080;-75
2022/07/23 03:43:48;;;;;;;10.23;4.10;;;15.20;99.90;;;;;;5017982;28;20224;-76
2022/07/23 03:46:14;;;;;;;10.27;4.20;;;15.10;99.90;;;;;;5017710;28;20037;-76
2022/07/23 03:48:39;;;;;;;6.70;4.80;;;15.10;99.90;;;;;;5017094;28;20018;-75
2022/07/23 03:51:05;;;;;;;7.97;4.22;;;15.10;99.90;;;;;;5014921;28;20026;-75
2022/07/23 03:53:31;;;;;;;7.75;4.85;;;15.10;99.90;;;;;;5009823;28;20045;-75
2022/07/23 03:55:56;;;;;;;6.80;4.38;;;15.10;99.90;;;;;;5010855;28;20518;-75
2022/07/23 03:58:22;;;;;;;8.27;4.30;;;15.10;99.90;;;;;;5013145;28;20026;-75
2022/07/23 04:00:48;;;;;;;6.63;4.60;;;15.10;99.90;;;;;;5007749;28;20032;-76
2022/07/23 04:03:13;;;;;;;10.63;4.40;;;15.10;99.90;;;;;;4997340;28;20019;-76
2022/07/23 04:05:39;;;;;;;7.53;3.85;;;15.10;99.90;;;;;;5002700;28;20065;-75
2022/07/23 04:08:04;;;;;;;9.82;4.65;;;15.10;99.90;;;;;;5013542;28;20076;-75
2022/07/23 04:10:30;;;;;;;7.97;4.78;;;15.10;99.90;;;;;;5007865;28;20061;-76
2022/07/23 04:12:56;;;;;;;9.63;4.97;;;15.10;99.90;;;;;;5001634;28;20026;-75
2022/07/23 04:15:21;;;;;;;7.10;5.25;;;15.00;99.90;;;;;;5000626;28;20470;-76
2022/07/23 04:17:47;;;;;;;9.30;4.78;;;15.00;99.90;;;;;;5014061;28;20026;-75
2022/07/23 04:20:12;;;;;;;8.45;4.60;;;15.00;99.90;;;;;;5011868;28;20036;-75
2022/07/23 04:22:38;;;;;;;8.95;4.28;;;15.00;99.90;;;;;;5013381;28;20033;-75
2022/07/23 04:25:04;;;;;;;6.97;4.90;;;15.00;99.90;;;;;;5005372;28;20026;-75
2022/07/23 04:27:30;;;;;;;6.78;4.75;;;15.00;99.90;;;;;;4999391;28;20050;-74
2022/07/23 04:29:55;;;;;;;11.38;5.25;;;15.00;99.90;;;;;;4997296;28;20030;-75
2022/07/23 04:32:21;;;;;;;11.32;5.47;;;15.00;99.90;;;;;;4993550;28;20141;-75
2022/07/23 04:34:46;;;;;;;13.63;5.20;;;15.10;99.90;;;;;;4993759;28;20449;-75
2022/07/23 04:37:12;;;;;;;8.52;5.32;;;15.10;99.90;;;;;;5005664;28;20021;-75
2022/07/23 04:39:38;;;;;;;6.07;4.53;;;15.10;99.90;;;;;;5000042;28;20033;-75
2022/07/23 04:42:03;;;;;;;9.35;4.78;;;15.10;99.90;;;;;;5009526;28;20084;-75
2022/07/23 04:44:29;;;;;;;10.05;4.80;;;15.20;99.90;;;;;;5007846;28;20070;-75
2022/07/23 04:46:55;;;;;;;7.70;4.50;;;15.20;99.90;;;;;;4993962;28;20022;-75
2022/07/23 04:49:20;;;;;;;7.05;4.28;;;15.20;99.90;;;;;;5007045;28;20037;-77
2022/07/23 04:51:46;;;;;;;8.30;4.43;;;15.20;99.90;;;;;;5000774;28;20026;-75
2022/07/23 04:54:11;;;;;;;7.95;4.70;;;15.20;99.90;;;;;;5006032;28;20026;-75
2022/07/23 04:56:37;;;;;;;7.88;4.80;;;15.20;99.90;;;;;;4996286;28;20517;-75
2022/07/23 04:59:02;;;;;;;7.75;4.82;;;15.30;99.90;;;;;;5004045;28;20102;-75
2022/07/23 05:01:28;;;;;;;6.75;4.75;;;15.30;99.90;;;;;;5006791;28;20077;-75
2022/07/23 05:03:54;;;;;;;7.15;5.00;;;15.20;99.90;;;;;;5003546;28;20065;-75
2022/07/23 05:06:19;;;;;;;9.60;5.22;;;15.30;99.90;;;;;;5008512;28;20561;-75
2022/07/23 05:08:45;;;;;;;10.85;5.40;;;15.30;99.90;;;;;;5006771;28;20014;-75
2022/07/23 05:11:10;;;;;;;10.00;5.07;;;15.30;99.90;;;;;;5004240;28;20034;-75
2022/07/23 05:13:36;;;;;;;10.18;5.40;;;15.30;99.90;;;;;;4998163;28;20065;-74
2022/07/23 05:16:01;;;;;;;6.05;4.80;;;15.30;99.90;;;;;;5002374;28;20034;-75
2022/07/23 05:18:27;;;;;;;11.02;5.47;;;15.30;99.90;;;;;;5007951;28;20022;-74
2022/07/23 05:20:52;;;;;;;8.15;5.30;;;15.40;99.90;;;;;;5011959;28;20026;-75
2022/07/23 05:23:18;;;;;;;7.63;5.13;;;15.40;99.90;;;;;;5011889;28;20072;-75
2022/07/23 05:25:44;;;;;;;8.45;5.20;;;15.50;99.90;;;;;;5009897;28;20077;-75
2022/07/23 05:28:09;;;;;;;7.80;4.88;;;15.50;99.90;;;;;;5009563;28;20026;-75
2022/07/23 05:30:35;;;;;;;9.07;5.60;;;15.60;99.90;;;;;;5009761;28;20030;-75
2022/07/23 05:33:01;;;;;;;10.38;5.68;;;15.60;99.90;;;;;;5006458;28;20021;-76
2022/07/23 05:35:26;;;;;;;8.43;5.53;;;15.60;99.90;;;;;;5003749;28;20018;-75
2022/07/23 05:37:52;;;;;;;8.90;5.80;;;15.70;99.90;;;;;;5011365;28;20077;-75
2022/07/23 05:40:18;;;;;;;11.68;6.10;;;15.70;99.90;;;;;;5012105;28;20072;-75
2022/07/23 05:42:43;;;;;;;10.05;6.32;;;15.80;99.90;;;;;;4999562;28;20031;-75
2022/07/23 05:45:10;;;;;;;11.00;6.53;;;15.80;99.90;;;;;;5011666;28;20045;-74
2022/07/23 05:47:46;;;;;;;9.23;6.30;;;15.90;99.90;;;;;;5001451;28;20073;-75
2022/07/23 05:50:12;;;;;;;13.25;6.57;;;15.90;99.90;;;;;;5012118;28;20412;-75
2022/07/23 05:52:38;;;;;;;14.25;6.70;;;16.00;99.90;;;;;;5009825;28;20061;-75
2022/07/23 05:55:05;;;;;;;8.80;5.82;;;16.10;99.90;;;;;;4997823;28;20042;-75
2022/07/23 05:57:30;;;;;;;8.63;5.95;;;16.10;99.90;;;;;;5002628;28;20123;-75
2022/07/23 05:59:56;;;;;;;8.60;5.90;;;16.10;99.90;;;;;;5009030;28;20050;-75
2022/07/23 06:02:22;;;;;;;11.30;5.22;;;16.20;99.90;;;;;;5007777;28;20402;-75
2022/07/23 06:04:47;;;;;;;7.47;4.97;;;16.20;99.90;;;;;;5007270;28;20033;-76
2022/07/23 06:07:13;;;;;;;9.35;4.80;;;16.20;99.90;;;;;;5010562;28;20437;-75
2022/07/23 06:09:38;;;;;;;8.40;4.60;;;16.30;99.90;;;;;;5009791;28;20029;-75
2022/07/23 06:12:04;;;;;;;8.80;4.50;;;16.30;99.90;;;;;;4995978;28;20038;-75
2022/07/23 06:14:30;;;;;;;7.03;5.28;;;16.30;99.90;;;;;;5003526;28;20608;-75
2022/07/23 06:17:00;;;;;;;8.95;4.97;;;16.30;99.90;;;;;;4998512;28;20108;-75
2022/07/23 06:19:26;;;;;;;7.45;4.40;;;16.40;99.90;;;;;;5012312;28;20101;-75
2022/07/23 06:21:51;;;;;;;10.43;5.50;;;16.40;99.90;;;;;;5010384;28;20057;-75
2022/07/23 06:24:17;;;;;;;10.48;5.13;;;16.50;99.90;;;;;;4999359;28;20041;-75
2022/07/23 06:26:43;;;;;;;9.07;5.10;;;16.50;99.90;;;;;;5008072;28;20046;-74
2022/07/23 06:29:08;;;;;;;8.88;5.43;;;16.50;99.90;;;;;;5001400;28;20394;-75
2022/07/23 06:31:34;;;;;;;8.38;4.93;;;16.60;99.90;;;;;;5012419;28;20433;-75
2022/07/23 06:34:00;;;;;;;8.15;5.47;;;16.60;99.90;;;;;;5009091;28;20017;-74
2022/07/23 06:36:25;;;;;;;9.60;5.47;;;16.60;99.90;;;;;;5013447;28;20032;-75
2022/07/23 06:38:51;;;;;;;9.75;5.45;;;16.70;99.90;;;;;;5015939;28;20155;-75
2022/07/23 06:41:16;;;;;;;11.25;6.00;;;16.80;99.90;;;;;;5010592;28;20030;-76
2022/07/23 06:43:42;;;;;;;7.55;5.32;;;16.80;99.90;;;;;;5004883;28;20100;-75
2022/07/23 06:46:07;;;;;;;9.35;5.63;;;16.90;99.90;;;;;;5010697;28;20018;-75
2022/07/23 06:48:35;;;;;;;9.27;5.55;;;16.90;99.90;;;;;;5002616;28;20022;-75
2022/07/23 06:51:01;;;;;;;7.20;4.85;;;17.00;99.90;;;;;;5015748;28;20026;-75
2022/07/23 06:53:27;;;;;;;9.57;5.28;;;17.00;99.90;;;;;;5001108;28;20113;-75
2022/07/23 06:55:52;;;;;;;6.53;3.90;;;17.10;99.90;;;;;;5011410;28;20125;-75
2022/07/23 06:58:19;;;;;;;4.82;3.15;;;17.10;99.90;;;;;;5008202;28;20027;-75
2022/07/23 07:00:44;;;;;;;4.95;3.13;;;17.20;99.90;;;;;;5008362;28;20017;-75
2022/07/23 07:03:10;;;;;;;5.90;2.95;;;17.30;99.90;;;;;;5016618;28;20029;-76
2022/07/23 07:05:36;;;;;;;4.40;2.63;;;17.40;99.90;;;;;;5006517;28;20025;-76
2022/07/23 07:08:01;;;;;;;5.22;2.45;;;17.50;99.90;;;;;;5006713;28;20053;-76
2022/07/23 07:10:27;;;;;;;7.05;2.92;;;17.70;99.90;;;;;;5018861;28;20072;-76
2022/07/23 07:12:52;;;;;;;6.25;2.72;;;17.90;99.90;;;;;;5020135;28;20026;-76
2022/07/23 07:15:18;;;;;;;6.18;2.88;;;18.10;99.90;;;;;;5013688;28;20643;-76
2022/07/23 07:17:43;;;;;;;4.88;2.53;;;18.20;99.90;;;;;;5007582;28;20037;-75
2022/07/23 07:20:10;;;;;;;4.00;2.20;;;18.40;99.90;;;;;;5015154;28;20026;-75
2022/07/23 07:22:35;;;;;;;6.95;3.20;;;18.40;99.90;;;;;;5014541;28;20022;-75
2022/07/23 07:25:01;;;;;;;7.28;2.80;;;18.50;99.90;;;;;;5002016;28;20529;-76
2022/07/23 07:27:27;;;;;;;7.50;3.17;;;18.60;99.90;;;;;;5000265;28;20418;-75
2022/07/23 07:29:52;;;;;;;5.93;3.60;;;18.70;99.90;;;;;;5003030;28;20026;-75
2022/07/23 07:32:18;;;;;;;6.65;3.67;;;18.80;99.90;;;;;;5012449;28;20040;-76
2022/07/23 07:34:43;;;;;;;9.02;4.15;;;18.90;99.90;;;;;;5014498;28;20093;-75
2022/07/23 07:37:09;;;;;;;7.10;3.92;;;19.00;99.90;;;;;;5008102;28;20034;-76
2022/07/23 07:39:34;;;;;;;8.23;2.80;;;19.10;99.90;;;;;;5011283;28;20017;-75
2022/07/23 07:42:00;;;;;;;7.28;2.60;;;19.20;99.90;;;;;;5004918;28;20117;-75
2022/07/23 07:44:26;;;;;;;4.28;2.40;;;19.30;99.90;;;;;;5013953;28;20041;-75
2022/07/23 07:46:52;;;;;;;4.03;2.25;;;19.40;99.90;;;;;;5013791;28;20037;-75
2022/07/23 07:49:19;;;;;;;6.57;2.40;;;19.50;99.90;;;;;;5008228;28;20022;-75
2022/07/23 07:51:45;;;;;;;5.28;2.20;;;19.70;99.90;;;;;;5013625;28;20037;-75
2022/07/23 07:54:10;;;;;;;3.58;2.00;;;19.80;99.90;;;;;;5005908;28;20022;-75
2022/07/23 07:56:36;;;;;;;2.92;2.10;;;20.00;99.90;;;;;;5000484;28;20026;-75
2022/07/23 07:59:01;;;;;;;3.97;2.10;;;20.10;99.90;;;;;;5004585;28;20026;-76
2022/07/23 08:01:27;;;;;;;7.65;2.33;;;20.40;99.90;;;;;;5013773;28;20026;-75
2022/07/23 08:03:53;;;;;;;4.45;2.05;;;20.60;99.90;;;;;;5013674;28;20033;-75
2022/07/23 08:06:18;;;;;;;5.97;1.90;;;20.70;99.90;;;;;;5013037;28;20064;-75
2022/07/23 08:08:44;;;;;;;8.38;2.25;;;20.80;99.90;;;;;;5011252;28;20478;-75
2022/07/23 08:11:09;;;;;;;3.30;1.45;;;20.80;99.90;;;;;;4996521;28;20544;-76
2022/07/23 08:13:35;;;;;;;6.28;1.85;;;20.80;99.90;;;;;;5006908;28;20033;-75
2022/07/23 08:16:01;;;;;;;4.50;2.22;;;20.90;99.90;;;;;;4993288;28;20639;-74
2022/07/23 08:18:26;;;;;;;4.28;2.10;;;20.90;99.90;;;;;;5006806;28;20034;-75
2022/07/23 08:20:52;;;;;;;5.38;2.00;;;21.00;99.90;;;;;;5003716;28;20029;-75
2022/07/23 08:23:19;;;;;;;3.05;1.95;;;21.10;99.90;;;;;;5011730;28;20022;-76
2022/07/23 08:25:46;;;;;;;4.55;2.03;;;21.30;99.90;;;;;;4996422;28;20017;-75
2022/07/23 08:28:14;;;;;;;4.60;1.92;;;21.40;99.90;;;;;;5001432;28;20152;-75
2022/07/23 08:30:41;;;;;;;4.15;1.70;;;21.50;99.90;;;;;;5011359;28;20052;-76
2022/07/23 08:33:13;;;;;;;2.97;1.65;;;21.60;99.90;;;;;;5012745;28;20034;-76
2022/07/23 08:35:45;;;;;;;2.92;2.03;;;21.80;99.90;;;;;;5013360;28;20028;-76
2022/07/23 08:38:13;;;;;;;5.72;1.92;;;21.90;99.90;;;;;;5007971;28;20037;-75
2022/07/23 08:40:44;;;;;;;5.68;2.00;;;22.00;99.90;;;;;;5011262;28;20026;-75
2022/07/23 08:43:15;;;;;;;2.70;1.90;;;22.10;99.90;;;;;;5013388;28;20076;-75
2022/07/23 08:45:44;;;;;;;5.20;2.03;;;22.30;99.90;;;;;;5012959;28;20105;-75
2022/07/23 08:48:33;;;;;;;4.32;2.20;;;22.30;99.90;;;;;;5012998;28;20362;-75
2022/07/23 08:51:01;;;;;;;4.80;2.00;;;22.50;99.90;;;;;;5008585;28;20029;-76
2022/07/23 08:53:28;;;;;;;6.40;3.00;;;22.60;99.90;;;;;;5013296;28;20022;-75
2022/07/23 08:55:56;;;;;;;5.20;2.40;;;22.70;99.90;;;;;;5009352;28;20030;-75
2022/07/23 08:58:22;;;;;;;4.65;2.05;;;22.80;99.90;;;;;;5010836;28;20130;-75
2022/07/23 09:00:49;;;;;;;7.40;1.90;;;22.70;99.90;;;;;;5003732;28;20042;-76
2022/07/23 09:03:26;;;;;;;3.80;2.20;;;22.70;99.90;;;;;;5009485;28;20048;-75
2022/07/23 09:05:52;;;;;;;5.15;1.90;;;22.80;99.90;;;;;;5011858;28;20048;-75
2022/07/23 09:08:21;;;;;;;5.10;2.00;;;22.70;99.50;;;;;;5011299;28;20025;-75
2022/07/23 09:10:49;;;;;;;5.15;1.85;;;22.70;99.10;;;;;;5002189;28;20022;-75
2022/07/23 09:13:28;;;;;;;4.70;1.90;;;22.80;99.30;;;;;;5007497;28;20045;-75
2022/07/23 09:15:56;;;;;;;6.72;2.20;;;22.90;99.10;;;;;;5011091;28;20026;-75
2022/07/23 09:18:51;;;;;;;4.05;1.90;;;23.10;98.50;;;;;;5012137;28;20053;-75
2022/07/23 09:21:21;;;;;;;3.03;1.63;;;23.20;97.80;;;;;;4993136;28;20065;-76
2022/07/23 09:23:48;;;;;;;3.92;1.70;;;23.40;97.70;;;;;;5006330;28;20053;-76
2022/07/23 09:26:22;;;;;;;8.10;2.42;;;23.50;97.30;;;;;;5006224;28;20057;-75
2022/07/23 09:28:51;;;;;;;7.40;2.30;;;23.70;96.30;;;;;;5005167;28;20364;-75
2022/07/23 09:31:17;;;;;;;5.57;2.75;;;23.70;95.70;;;;;;5012399;28;20030;-75
2022/07/23 09:33:42;;;;;;;5.80;2.58;;;23.70;95.50;;;;;;5012748;28;20100;-75
2022/07/23 09:36:09;;;;;;;3.95;2.40;;;23.70;95.20;;;;;;5009097;28;20022;-75
2022/07/23 09:38:47;;;;;;;5.03;2.63;;;23.70;94.90;;;;;;4998392;28;20048;-75
2022/07/23 09:41:13;;;;;;;3.88;2.17;;;23.80;94.50;;;;;;5009126;28;20030;-76
2022/07/23 09:43:39;;;;;;;6.13;2.45;;;23.90;94.30;;;;;;4996913;28;20062;-75
2022/07/23 09:46:33;;;;;;;5.05;2.20;;;24.00;94.00;;;;;;4994089;28;20132;-76
2022/07/23 09:49:14;;;;;;;5.28;2.40;;;24.20;93.90;;;;;;5002432;28;20037;-75
2022/07/23 09:51:51;;;;;;;3.50;2.47;;;24.40;93.20;;;;;;4996594;28;20025;-75
2022/07/23 09:54:24;;;;;;;6.35;2.53;;;24.50;91.70;;;;;;4999319;28;20045;-76
2022/07/23 09:56:51;;;;;;;6.05;2.63;;;24.50;91.60;;;;;;4998079;28;20299;-75
2022/07/23 09:59:18;;;;;;;4.90;2.22;;;24.50;91.60;;;;;;5012914;28;20038;-75
2022/07/23 10:01:45;;;;;;;5.55;2.67;;;24.60;91.70;;;;;;5002668;28;20053;-75
2022/07/23 10:04:14;;;;;;;4.32;2.33;;;24.90;91.50;;;;;;5013101;28;20034;-75
2022/07/23 10:06:42;;;;;;;3.55;2.20;;;25.10;90.50;;;;;;5015642;28;20033;-75
2022/07/23 10:09:10;;;;;;;4.03;2.35;;;25.20;90.20;;;;;;5001916;28;20028;-76
2022/07/23 10:11:36;;;;;;;4.10;2.30;;;25.40;89.60;;;;;;5013818;28;20102;-76
2022/07/23 10:14:04;;;;;;;7.05;2.47;;;25.60;88.50;;;;;;5017613;28;20506;-78
2022/07/23 10:16:30;;;;;;;4.20;2.33;;;25.80;87.30;;;;;;5017654;28;20022;-76
2022/07/23 10:18:56;;;;;;;5.25;2.08;;;25.90;86.80;;;;;;5016335;28;20018;-76
2022/07/23 10:21:30;;;;;;;4.68;2.78;;;26.10;86.10;;;;;;5011076;28;20442;-75
2022/07/23 10:24:11;;;;;;;5.32;2.30;;;26.30;85.60;;;;;;5007024;28;20034;-75
2022/07/23 10:26:54;;;;;;;3.75;2.10;;;26.40;83.80;;;;;;5013042;28;20033;-76
2022/07/23 10:29:45;;;;;;;3.67;2.05;;;26.50;83.40;;;;;;5009198;28;20034;-75
2022/07/23 10:32:44;;;;;;;4.95;2.40;;;26.70;80.10;;;;;;5007752;28;20038;-76
2022/07/23 10:35:22;;;;;;;5.68;2.30;;;26.60;79.50;;;;;;5007553;28;20037;-76
2022/07/23 10:37:50;;;;;;;4.38;2.30;;;26.40;78.50;;;;;;5004087;28;20557;-77
2022/07/23 10:40:23;;;;;;;7.05;2.67;;;26.10;79.00;;;;;;5009149;28;20028;-78
2022/07/23 10:42:55;;;;;;;5.65;2.30;;;25.90;78.90;;;;;;5027324;28;20073;-77
2022/07/23 10:45:33;;;;;;;4.85;2.20;;;25.80;79.80;;;;;;5029853;28;20034;-77
2022/07/23 10:48:27;;;;;;;6.68;4.07;;;25.90;80.60;;;;;;5020619;28;20034;-75
2022/07/23 10:51:15;;;;;;;19.52;13.65;;;25.90;78.50;;;;;;5001340;28;20266;-77
2022/07/23 10:53:59;;;;;;;14.77;9.95;;;26.00;77.70;;;;;;5004721;28;20022;-76
2022/07/23 10:56:49;;;;;;;23.63;18.55;;;26.00;77.20;;;;;;4998927;28;20042;-75
2022/07/23 10:59:15;;;;;;;4.93;2.58;;;26.20;76.60;;;;;;5004990;28;20026;-76
2022/07/23 11:01:41;;;;;;;3.58;2.70;;;26.20;76.40;;;;;;5007294;28;20073;-76
2022/07/23 11:04:07;;;;;;;6.93;2.50;;;26.30;75.00;;;;;;5005053;28;20043;-76
2022/07/23 11:06:48;;;;;;;4.15;2.33;;;26.30;75.40;;;;;;5016125;28;20026;-76
2022/07/23 11:09:26;;;;;;;3.10;2.20;;;26.50;73.30;;;;;;5001915;28;20029;-76
2022/07/23 11:12:20;;;;;;;2.65;1.92;;;26.40;72.40;;;;;;5007558;28;20057;-76
2022/07/23 11:14:58;;;;;;;4.00;1.88;;;26.30;70.60;;;;;;4999299;28;20546;-76
2022/07/23 11:17:25;;;;;;;2.78;1.90;;;26.30;73.40;;;;;;5009664;28;20034;-78
2022/07/23 11:20:09;;;;;;;3.08;2.10;;;26.40;72.20;;;;;;5012087;28;20030;-75
2022/07/23 11:22:43;;;;;;;17.67;12.85;;;26.60;69.90;;;;;;5004983;28;20064;-75
2022/07/23 11:25:22;;;;;;;10.63;6.23;;;26.70;70.50;;;;;;5007809;28;20037;-76
2022/07/23 11:27:49;;;;;;;7.10;5.13;;;26.80;70.40;;;;;;5010227;28;20050;-76
2022/07/23 11:30:27;;;;;;;3.72;2.65;;;27.00;68.80;;;;;;5019634;28;20038;-75
2022/07/23 11:33:08;;;;;;;2.35;1.63;;;27.10;66.30;;;;;;5010307;28;20022;-76
2022/07/23 11:35:35;;;;;;;3.10;1.70;;;27.30;65.20;;;;;;5010033;28;20041;-76
2022/07/23 11:38:13;;;;;;;2.72;1.83;;;27.30;64.90;;;;;;5008334;28;20081;-75
2022/07/23 11:40:39;;;;;;;4.00;1.65;;;27.40;63.90;;;;;;5007632;28;20442;-76
2022/07/23 11:43:08;;;;;;;2.17;1.60;;;27.60;62.40;;;;;;5008585;28;20106;-75
2022/07/23 11:45:35;;;;;;;2.78;1.52;;;27.50;61.80;;;;;;5016017;28;20037;-75
2022/07/23 11:48:02;;;;;;;18.20;9.73;;;27.50;60.40;;;;;;5010867;28;20055;-75
2022/07/23 11:50:28;;;;;;;20.25;18.05;;;27.50;59.30;;;;;;5005049;28;20027;-76
2022/07/23 11:52:55;;;;;;;25.85;20.45;;;27.50;59.10;;;;;;5005736;28;20041;-76
2022/07/23 11:55:21;;;;;;;5.45;2.20;;;27.60;58.80;;;;;;5008486;28;20516;-75
2022/07/23 11:57:46;;;;;;;3.40;1.80;;;27.60;58.80;;;;;;5008984;28;20066;-75
2022/07/23 12:00:21;;;;;;;2.67;1.63;;;27.60;58.90;;;;;;5010992;28;20037;-75
2022/07/23 12:02:53;;;;;;;3.13;2.15;;;27.70;58.40;;;;;;5000245;28;20089;-75
2022/07/23 12:05:23;;;;;;;4.03;1.90;;;27.80;58.40;;;;;;5014481;28;20045;-76
2022/07/23 12:07:51;;;;;;;2.67;2.08;;;27.80;58.10;;;;;;5015792;28;20084;-76
2022/07/23 12:10:25;;;;;;;153.57;137.02;;;27.70;58.20;;;;;;5015850;28;20057;-75
2022/07/23 12:12:54;;;;;;;13.60;11.48;;;27.60;58.20;;;;;;5012235;28;20026;-75
2022/07/23 12:15:28;;;;;;;6.55;3.03;;;27.60;58.80;;;;;;5010493;28;20110;-76
2022/07/23 12:17:54;;;;;;;3.33;2.60;;;27.60;59.00;;;;;;5016990;28;20088;-75
2022/07/23 12:20:26;;;;;;;4.00;2.80;;;27.70;59.60;;;;;;5006142;28;20751;-75
2022/07/23 12:22:56;;;;;;;4.57;2.60;;;27.80;59.50;;;;;;5007318;28;20082;-76
2022/07/23 12:25:24;;;;;;;5.35;3.00;;;27.80;59.60;;;;;;5006726;28;20030;-75
2022/07/23 12:27:59;;;;;;;26.73;20.90;;;27.80;59.30;;;;;;5012139;28;20057;-75
2022/07/23 12:30:28;;;;;;;10.52;6.63;;;27.90;60.40;;;;;;5011115;28;20030;-77
2022/07/23 12:32:56;;;;;;;4.97;2.58;;;27.90;59.50;;;;;;5018700;28;20022;-75
2022/07/23 12:35:29;;;;;;;4.00;2.28;;;28.10;60.10;;;;;;5023706;28;20057;-74
2022/07/23 12:38:02;;;;;;;4.88;2.60;;;28.30;59.60;;;;;;5009043;28;20033;-74
2022/07/23 12:40:32;;;;;;;4.20;2.78;;;28.50;59.50;;;;;;5019814;28;20112;-75
2022/07/23 12:43:01;;;;;;;3.88;2.78;;;28.60;58.90;;;;;;5018938;28;20069;-75
2022/07/23 12:45:40;;;;;;;7.43;2.85;;;28.80;58.00;;;;;;5029736;28;20052;-75
2022/07/23 12:48:06;;;;;;;3.63;2.45;;;28.70;58.00;;;;;;5019206;28;20029;-75
2022/07/23 12:50:33;;;;;;;6.35;2.60;;;28.70;58.50;;;;;;5010427;28;20054;-75